sensor_id;sensor_type;location;lat;lon;timestamp;pressure;altitude;pressure_sealevel;temperature
43292;BMP280;28754;47.700;7.924;2023-11-19T00:01:08;91574.84;;;8.89
43292;BMP280;28754;47.700;7.924;2023-11-19T00:03:54;91573.06;;;8.90
43292;BMP280;28754;47.700;7.924;2023-11-19T00:06:41;91562.13;;;8.94
43292;BMP280;28754;47.700;7.924;2023-11-19T00:09:28;91557.78;;;8.95
43292;BMP280;28754;47.700;7.924;2023-11-19T00:12:15;91561.63;;;8.97
43292;BMP280;28754;47.700;7.924;2023-11-19T00:15:01;91558.84;;;8.99
43292;BMP280;28754;47.700;7.924;2023-11-19T00:17:48;91560.16;;;9.06
43292;BMP280;28754;47.700;7.924;2023-11-19T00:20:35;91555.31;;;9.05
43292;BMP280;28754;47.700;7.924;2023-11-19T00:23:22;91540.00;;;9.05
43292;BMP280;28754;47.700;7.924;2023-11-19T00:26:09;91535.91;;;9.09
43292;BMP280;28754;47.700;7.924;2023-11-19T00:28:57;91531.59;;;9.09
43292;BMP280;28754;47.700;7.924;2023-11-19T00:31:45;91536.44;;;9.11
43292;BMP280;28754;47.700;7.924;2023-11-19T00:34:32;91525.50;;;9.15
43292;BMP280;28754;47.700;7.924;2023-11-19T00:37:18;91529.84;;;9.15
43292;BMP280;28754;47.700;7.924;2023-11-19T00:40:06;91537.81;;;9.18
43292;BMP280;28754;47.700;7.924;2023-11-19T00:42:53;91527.59;;;9.18
43292;BMP280;28754;47.700;7.924;2023-11-19T00:45:40;91539.31;;;9.19
43292;BMP280;28754;47.700;7.924;2023-11-19T00:48:27;91539.09;;;9.21
43292;BMP280;28754;47.700;7.924;2023-11-19T00:51:14;91528.88;;;9.21
43292;BMP280;28754;47.700;7.924;2023-11-19T00:54:01;91539.84;;;9.21
43292;BMP280;28754;47.700;7.924;2023-11-19T00:56:48;91532.47;;;9.20
43292;BMP280;28754;47.700;7.924;2023-11-19T00:59:35;91531.19;;;9.22
43292;BMP280;28754;47.700;7.924;2023-11-19T01:02:21;91534.28;;;9.24
43292;BMP280;28754;47.700;7.924;2023-11-19T01:05:08;91536.34;;;9.27
43292;BMP280;28754;47.700;7.924;2023-11-19T01:07:56;91524.06;;;9.24
43292;BMP280;28754;47.700;7.924;2023-11-19T01:10:43;91513.84;;;9.24
43292;BMP280;28754;47.700;7.924;2023-11-19T01:13:30;91520.47;;;9.25
43292;BMP280;28754;47.700;7.924;2023-11-19T01:16:18;91526.63;;;9.29
43292;BMP280;28754;47.700;7.924;2023-11-19T01:19:05;91517.94;;;9.30
43292;BMP280;28754;47.700;7.924;2023-11-19T01:21:52;91515.91;;;9.32
43292;BMP280;28754;47.700;7.924;2023-11-19T01:24:38;91520.03;;;9.33
43292;BMP280;28754;47.700;7.924;2023-11-19T01:27:25;91517.47;;;9.33
43292;BMP280;28754;47.700;7.924;2023-11-19T01:30:12;91524.63;;;9.36
43292;BMP280;28754;47.700;7.924;2023-11-19T01:32:59;91518.53;;;9.37
43292;BMP280;28754;47.700;7.924;2023-11-19T01:35:46;91498.59;;;9.39
43292;BMP280;28754;47.700;7.924;2023-11-19T01:38:34;91498.84;;;9.37
43292;BMP280;28754;47.700;7.924;2023-11-19T01:41:20;91489.66;;;9.41
43292;BMP280;28754;47.700;7.924;2023-11-19T01:44:07;91494.50;;;9.43
43292;BMP280;28754;47.700;7.924;2023-11-19T01:46:54;91500.16;;;9.45
43292;BMP280;28754;47.700;7.924;2023-11-19T01:49:41;91506.81;;;9.46
43292;BMP280;28754;47.700;7.924;2023-11-19T01:52:28;91495.59;;;9.52
43292;BMP280;28754;47.700;7.924;2023-11-19T01:55:15;91470.28;;;9.50
43292;BMP280;28754;47.700;7.924;2023-11-19T01:58:02;91472.09;;;9.55
43292;BMP280;28754;47.700;7.924;2023-11-19T02:00:49;91479.78;;;9.55
43292;BMP280;28754;47.700;7.924;2023-11-19T02:03:35;91473.38;;;9.57
43292;BMP280;28754;47.700;7.924;2023-11-19T02:06:23;91457.81;;;9.58
43292;BMP280;28754;47.700;7.924;2023-11-19T02:09:11;91469.31;;;9.61
43292;BMP280;28754;47.700;7.924;2023-11-19T02:11:57;91476.47;;;9.64
43292;BMP280;28754;47.700;7.924;2023-11-19T02:14:44;91488.00;;;9.66
43292;BMP280;28754;47.700;7.924;2023-11-19T02:17:31;91474.72;;;9.64
43292;BMP280;28754;47.700;7.924;2023-11-19T02:20:18;91490.56;;;9.66
43292;BMP280;28754;47.700;7.924;2023-11-19T02:23:06;91499.78;;;9.67
43292;BMP280;28754;47.700;7.924;2023-11-19T02:26:12;91487.50;;;9.64
43292;BMP280;28754;47.700;7.924;2023-11-19T02:29:00;91473.91;;;9.64
43292;BMP280;28754;47.700;7.924;2023-11-19T02:31:47;91471.13;;;9.65
43292;BMP280;28754;47.700;7.924;2023-11-19T02:34:33;91457.59;;;9.65
43292;BMP280;28754;47.700;7.924;2023-11-19T02:37:20;91442.25;;;9.65
43292;BMP280;28754;47.700;7.924;2023-11-19T02:40:07;91454.25;;;9.64
43292;BMP280;28754;47.700;7.924;2023-11-19T02:42:56;91453.47;;;9.64
43292;BMP280;28754;47.700;7.924;2023-11-19T02:45:42;91450.69;;;9.65
43292;BMP280;28754;47.700;7.924;2023-11-19T02:48:32;91458.34;;;9.65
43292;BMP280;28754;47.700;7.924;2023-11-19T02:51:19;91430.72;;;9.62
43292;BMP280;28754;47.700;7.924;2023-11-19T02:54:06;91442.72;;;9.62
43292;BMP280;28754;47.700;7.924;2023-11-19T02:56:53;91457.81;;;9.63
43292;BMP280;28754;47.700;7.924;2023-11-19T02:59:45;91452.44;;;9.60
43292;BMP280;28754;47.700;7.924;2023-11-19T03:02:35;91440.16;;;9.62
43292;BMP280;28754;47.700;7.924;2023-11-19T03:05:30;91446.56;;;9.59
43292;BMP280;28754;47.700;7.924;2023-11-19T03:08:19;91450.66;;;9.60
43292;BMP280;28754;47.700;7.924;2023-11-19T03:11:06;91450.13;;;9.58
43292;BMP280;28754;47.700;7.924;2023-11-19T03:13:55;91451.13;;;9.57
43292;BMP280;28754;47.700;7.924;2023-11-19T03:16:45;91440.41;;;9.56
43292;BMP280;28754;47.700;7.924;2023-11-19T03:19:37;91441.19;;;9.56
43292;BMP280;28754;47.700;7.924;2023-11-19T03:22:24;91450.63;;;9.56
43292;BMP280;28754;47.700;7.924;2023-11-19T03:25:11;91451.66;;;9.55
43292;BMP280;28754;47.700;7.924;2023-11-19T03:27:58;91462.63;;;9.55
43292;BMP280;28754;47.700;7.924;2023-11-19T03:30:45;91458.81;;;9.57
43292;BMP280;28754;47.700;7.924;2023-11-19T03:33:32;91471.06;;;9.56
43292;BMP280;28754;47.700;7.924;2023-11-19T03:36:19;91461.88;;;9.55
43292;BMP280;28754;47.700;7.924;2023-11-19T03:39:09;91456.53;;;9.56
43292;BMP280;28754;47.700;7.924;2023-11-19T03:41:55;91450.38;;;9.57
43292;BMP280;28754;47.700;7.924;2023-11-19T03:44:42;91471.34;;;9.59
43292;BMP280;28754;47.700;7.924;2023-11-19T03:47:29;91458.34;;;9.60
43292;BMP280;28754;47.700;7.924;2023-11-19T03:50:15;91455.50;;;9.62
43292;BMP280;28754;47.700;7.924;2023-11-19T03:53:02;91456.28;;;9.62
43292;BMP280;28754;47.700;7.924;2023-11-19T03:55:49;91450.69;;;9.65
43292;BMP280;28754;47.700;7.924;2023-11-19T03:58:36;91458.34;;;9.65
43292;BMP280;28754;47.700;7.924;2023-11-19T04:01:24;91475.22;;;9.66
43292;BMP280;28754;47.700;7.924;2023-11-19T04:04:11;91471.66;;;9.67
43292;BMP280;28754;47.700;7.924;2023-11-19T04:06:58;91478.56;;;9.67
43292;BMP280;28754;47.700;7.924;2023-11-19T04:09:47;91480.81;;;9.63
43292;BMP280;28754;47.700;7.924;2023-11-19T04:12:33;91472.66;;;9.66
43292;BMP280;28754;47.700;7.924;2023-11-19T04:15:21;91487.75;;;9.68
43292;BMP280;28754;47.700;7.924;2023-11-19T04:18:08;91468.34;;;9.67
43292;BMP280;28754;47.700;7.924;2023-11-19T04:20:55;91493.09;;;9.66
43292;BMP280;28754;47.700;7.924;2023-11-19T04:23:42;91474.97;;;9.68
43292;BMP280;28754;47.700;7.924;2023-11-19T04:26:29;91479.31;;;9.67
43292;BMP280;28754;47.700;7.924;2023-11-19T04:29:18;91479.31;;;9.67
43292;BMP280;28754;47.700;7.924;2023-11-19T04:32:06;91483.41;;;9.68
43292;BMP280;28754;47.700;7.924;2023-11-19T04:34:53;91486.75;;;9.69
43292;BMP280;28754;47.700;7.924;2023-11-19T04:37:41;91481.63;;;9.69
43292;BMP280;28754;47.700;7.924;2023-11-19T04:40:28;91490.84;;;9.70
43292;BMP280;28754;47.700;7.924;2023-11-19T04:43:15;91487.50;;;9.69
43292;BMP280;28754;47.700;7.924;2023-11-19T04:46:04;91495.72;;;9.71
43292;BMP280;28754;47.700;7.924;2023-11-19T04:48:50;91490.84;;;9.75
43292;BMP280;28754;47.700;7.924;2023-11-19T04:51:41;91493.69;;;9.73
43292;BMP280;28754;47.700;7.924;2023-11-19T04:54:32;91496.75;;;9.75
43292;BMP280;28754;47.700;7.924;2023-11-19T04:57:18;91492.41;;;9.76
43292;BMP280;28754;47.700;7.924;2023-11-19T05:00:06;91489.84;;;9.76
43292;BMP280;28754;47.700;7.924;2023-11-19T05:02:53;91483.69;;;9.77
43292;BMP280;28754;47.700;7.924;2023-11-19T05:05:40;91490.38;;;9.78
43292;BMP280;28754;47.700;7.924;2023-11-19T05:08:27;91486.78;;;9.79
43292;BMP280;28754;47.700;7.924;2023-11-19T05:11:13;91495.22;;;9.79
43292;BMP280;28754;47.700;7.924;2023-11-19T05:14:05;91496.00;;;9.80
43292;BMP280;28754;47.700;7.924;2023-11-19T05:16:52;91484.97;;;9.79
43292;BMP280;28754;47.700;7.924;2023-11-19T05:19:39;91487.53;;;9.79
43292;BMP280;28754;47.700;7.924;2023-11-19T05:22:25;91488.34;;;9.80
43292;BMP280;28754;47.700;7.924;2023-11-19T05:25:12;91491.66;;;9.80
43292;BMP280;28754;47.700;7.924;2023-11-19T05:27:59;91494.22;;;9.80
43292;BMP280;28754;47.700;7.924;2023-11-19T05:30:45;91485.25;;;9.83
43292;BMP280;28754;47.700;7.924;2023-11-19T05:33:32;91493.69;;;9.83
43292;BMP280;28754;47.700;7.924;2023-11-19T05:36:19;91494.72;;;9.82
43292;BMP280;28754;47.700;7.924;2023-11-19T05:39:05;91494.50;;;9.84
43292;BMP280;28754;47.700;7.924;2023-11-19T05:41:52;91501.38;;;9.83
43292;BMP280;28754;47.700;7.924;2023-11-19T05:44:39;91483.00;;;9.86
43292;BMP280;28754;47.700;7.924;2023-11-19T05:47:25;91497.31;;;9.87
43292;BMP280;28754;47.700;7.924;2023-11-19T05:50:12;91495.50;;;9.88
43292;BMP280;28754;47.700;7.924;2023-11-19T05:52:59;91480.94;;;9.88
43292;BMP280;28754;47.700;7.924;2023-11-19T05:55:45;91496.31;;;9.88
43292;BMP280;28754;47.700;7.924;2023-11-19T05:58:36;91485.28;;;9.88
43292;BMP280;28754;47.700;7.924;2023-11-19T06:01:23;91486.06;;;9.88
43292;BMP280;28754;47.700;7.924;2023-11-19T06:04:10;91493.50;;;9.90
43292;BMP280;28754;47.700;7.924;2023-11-19T06:06:57;91494.28;;;9.90
43292;BMP280;28754;47.700;7.924;2023-11-19T06:09:44;91508.59;;;9.91
43292;BMP280;28754;47.700;7.924;2023-11-19T06:12:30;91506.56;;;9.93
43292;BMP280;28754;47.700;7.924;2023-11-19T06:15:18;91489.19;;;9.90
43292;BMP280;28754;47.700;7.924;2023-11-19T06:18:05;91495.06;;;9.95
43292;BMP280;28754;47.700;7.924;2023-11-19T06:20:52;91500.41;;;9.94
43292;BMP280;28754;47.700;7.924;2023-11-19T06:23:38;91505.06;;;9.97
43292;BMP280;28754;47.700;7.924;2023-11-19T06:26:25;91498.16;;;9.97
43292;BMP280;28754;47.700;7.924;2023-11-19T06:29:12;91489.19;;;10.00
43292;BMP280;28754;47.700;7.924;2023-11-19T06:31:58;91511.22;;;10.01
43292;BMP280;28754;47.700;7.924;2023-11-19T06:34:45;91504.06;;;10.03
43292;BMP280;28754;47.700;7.924;2023-11-19T06:37:32;91504.06;;;10.03
43292;BMP280;28754;47.700;7.924;2023-11-19T06:40:19;91511.47;;;10.04
43292;BMP280;28754;47.700;7.924;2023-11-19T06:43:06;91503.78;;;10.04
43292;BMP280;28754;47.700;7.924;2023-11-19T06:45:54;91513.78;;;10.06
43292;BMP280;28754;47.700;7.924;2023-11-19T06:48:41;91510.47;;;10.05
43292;BMP280;28754;47.700;7.924;2023-11-19T06:51:30;91518.66;;;10.07
43292;BMP280;28754;47.700;7.924;2023-11-19T06:54:17;91511.00;;;10.07
43292;BMP280;28754;47.700;7.924;2023-11-19T06:57:04;91503.56;;;10.06
43292;BMP280;28754;47.700;7.924;2023-11-19T06:59:51;91511.75;;;10.08
43292;BMP280;28754;47.700;7.924;2023-11-19T07:02:38;91517.63;;;10.08
43292;BMP280;28754;47.700;7.924;2023-11-19T07:05:27;91508.94;;;10.09
43292;BMP280;28754;47.700;7.924;2023-11-19T07:08:14;91507.41;;;10.08
43292;BMP280;28754;47.700;7.924;2023-11-19T07:11:02;91514.81;;;10.10
43292;BMP280;28754;47.700;7.924;2023-11-19T07:13:50;91510.72;;;10.09
43292;BMP280;28754;47.700;7.924;2023-11-19T07:16:38;91509.19;;;10.13
43292;BMP280;28754;47.700;7.924;2023-11-19T07:19:25;91529.16;;;10.11
43292;BMP280;28754;47.700;7.924;2023-11-19T07:22:12;91529.66;;;10.13
43292;BMP280;28754;47.700;7.924;2023-11-19T07:24:59;91525.59;;;10.12
43292;BMP280;28754;47.700;7.924;2023-11-19T07:28:06;91516.09;;;10.07
43292;BMP280;28754;47.700;7.924;2023-11-19T07:31:04;91524.56;;;10.13
43292;BMP280;28754;47.700;7.924;2023-11-19T07:33:56;91525.31;;;10.13
43292;BMP280;28754;47.700;7.924;2023-11-19T07:36:45;91528.63;;;10.09
43292;BMP280;28754;47.700;7.924;2023-11-19T07:39:32;91526.88;;;10.14
43292;BMP280;28754;47.700;7.924;2023-11-19T07:42:19;91522.75;;;10.13
43292;BMP280;28754;47.700;7.924;2023-11-19T07:45:15;91524.03;;;10.16
43292;BMP280;28754;47.700;7.924;2023-11-19T07:48:04;91529.94;;;10.16
43292;BMP280;28754;47.700;7.924;2023-11-19T07:51:04;91519.97;;;10.15
43292;BMP280;28754;47.700;7.924;2023-11-19T07:53:52;91536.34;;;10.14
43292;BMP280;28754;47.700;7.924;2023-11-19T07:56:42;91537.34;;;10.18
43292;BMP280;28754;47.700;7.924;2023-11-19T07:59:31;91537.88;;;10.20
43292;BMP280;28754;47.700;7.924;2023-11-19T08:02:18;91535.84;;;10.22
43292;BMP280;28754;47.700;7.924;2023-11-19T08:05:06;91545.59;;;10.25
43292;BMP280;28754;47.700;7.924;2023-11-19T08:07:53;91555.03;;;10.24
43292;BMP280;28754;47.700;7.924;2023-11-19T08:10:42;91535.59;;;10.23
43292;BMP280;28754;47.700;7.924;2023-11-19T08:13:31;91536.59;;;10.22
43292;BMP280;28754;47.700;7.924;2023-11-19T08:16:18;91543.03;;;10.25
43292;BMP280;28754;47.700;7.924;2023-11-19T08:19:05;91543.56;;;10.27
43292;BMP280;28754;47.700;7.924;2023-11-19T08:22:23;91539.44;;;10.30
43292;BMP280;28754;47.700;7.924;2023-11-19T08:25:16;91536.41;;;10.33
43292;BMP280;28754;47.700;7.924;2023-11-19T08:28:05;91536.41;;;10.33
43292;BMP280;28754;47.700;7.924;2023-11-19T08:30:52;91544.59;;;10.35
43292;BMP280;28754;47.700;7.924;2023-11-19T08:33:39;91550.22;;;10.32
43292;BMP280;28754;47.700;7.924;2023-11-19T08:36:26;91546.66;;;10.33
43292;BMP280;28754;47.700;7.924;2023-11-19T08:39:14;91546.13;;;10.36
43292;BMP280;28754;47.700;7.924;2023-11-19T08:42:01;91563.03;;;10.37
43292;BMP280;28754;47.700;7.924;2023-11-19T08:44:51;91574.28;;;10.36
43292;BMP280;28754;47.700;7.924;2023-11-19T08:47:40;91566.59;;;10.36
43292;BMP280;28754;47.700;7.924;2023-11-19T08:50:27;91567.38;;;10.37
43292;BMP280;28754;47.700;7.924;2023-11-19T08:53:14;91565.34;;;10.39
43292;BMP280;28754;47.700;7.924;2023-11-19T08:56:01;91565.84;;;10.36
43292;BMP280;28754;47.700;7.924;2023-11-19T08:58:49;91557.41;;;10.35
43292;BMP280;28754;47.700;7.924;2023-11-19T09:01:36;91556.38;;;10.36
43292;BMP280;28754;47.700;7.924;2023-11-19T09:04:26;91547.41;;;10.34
43292;BMP280;28754;47.700;7.924;2023-11-19T09:07:12;91565.84;;;10.36
43292;BMP280;28754;47.700;7.924;2023-11-19T09:09:59;91561.25;;;10.38
43292;BMP280;28754;47.700;7.924;2023-11-19T09:12:46;91569.69;;;10.38
43292;BMP280;28754;47.700;7.924;2023-11-19T09:15:33;91569.69;;;10.38
43292;BMP280;28754;47.700;7.924;2023-11-19T09:18:19;91568.16;;;10.37
43292;BMP280;28754;47.700;7.924;2023-11-19T09:21:06;91568.16;;;10.37
43292;BMP280;28754;47.700;7.924;2023-11-19T09:23:53;91567.88;;;10.39
43292;BMP280;28754;47.700;7.924;2023-11-19T09:26:40;91572.25;;;10.38
43292;BMP280;28754;47.700;7.924;2023-11-19T09:29:31;91572.25;;;10.38
43292;BMP280;28754;47.700;7.924;2023-11-19T09:32:18;91570.44;;;10.39
43292;BMP280;28754;47.700;7.924;2023-11-19T09:35:05;91563.28;;;10.41
43292;BMP280;28754;47.700;7.924;2023-11-19T09:37:52;91564.56;;;10.43
43292;BMP280;28754;47.700;7.924;2023-11-19T09:40:39;91566.66;;;10.46
43292;BMP280;28754;47.700;7.924;2023-11-19T09:43:28;91574.56;;;10.50
43292;BMP280;28754;47.700;7.924;2023-11-19T09:46:19;91552.56;;;10.54
43292;BMP280;28754;47.700;7.924;2023-11-19T09:49:10;91563.88;;;10.58
43292;BMP280;28754;47.700;7.924;2023-11-19T09:51:57;91573.59;;;10.61
43292;BMP280;28754;47.700;7.924;2023-11-19T09:54:47;91570.78;;;10.62
43292;BMP280;28754;47.700;7.924;2023-11-19T09:57:38;91564.13;;;10.66
43292;BMP280;28754;47.700;7.924;2023-11-19T10:00:26;91556.97;;;10.63
43292;BMP280;28754;47.700;7.924;2023-11-19T10:03:14;91565.66;;;10.67
43292;BMP280;28754;47.700;7.924;2023-11-19T10:06:02;91572.88;;;10.65
43292;BMP280;28754;47.700;7.924;2023-11-19T10:08:49;91554.94;;;10.65
43292;BMP280;28754;47.700;7.924;2023-11-19T10:11:38;91557.50;;;10.65
43292;BMP280;28754;47.700;7.924;2023-11-19T10:14:31;91565.66;;;10.67
43292;BMP280;28754;47.700;7.924;2023-11-19T10:17:20;91564.13;;;10.66
43292;BMP280;28754;47.700;7.924;2023-11-19T10:20:08;91554.94;;;10.65
43292;BMP280;28754;47.700;7.924;2023-11-19T10:22:59;91563.63;;;10.64
43292;BMP280;28754;47.700;7.924;2023-11-19T10:25:53;91561.06;;;10.59
43292;BMP280;28754;47.700;7.924;2023-11-19T10:28:40;91560.53;;;10.62
43292;BMP280;28754;47.700;7.924;2023-11-19T10:31:31;91550.53;;;10.61
43292;BMP280;28754;47.700;7.924;2023-11-19T10:34:30;91559.00;;;10.61
43292;BMP280;28754;47.700;7.924;2023-11-19T10:37:32;91559.78;;;10.62
43292;BMP280;28754;47.700;7.924;2023-11-19T10:40:21;91548.25;;;10.64
43292;BMP280;28754;47.700;7.924;2023-11-19T10:43:12;91535.47;;;10.69
43292;BMP280;28754;47.700;7.924;2023-11-19T10:46:13;91540.09;;;10.72
43292;BMP280;28754;47.700;7.924;2023-11-19T10:49:00;91547.78;;;10.77
43292;BMP280;28754;47.700;7.924;2023-11-19T10:51:47;91541.38;;;10.79
43292;BMP280;28754;47.700;7.924;2023-11-19T10:54:44;91531.41;;;10.78
43292;BMP280;28754;47.700;7.924;2023-11-19T10:57:53;91524.47;;;10.78
43292;BMP280;28754;47.700;7.924;2023-11-19T11:00:51;91523.72;;;10.78
43292;BMP280;28754;47.700;7.924;2023-11-19T11:03:42;91520.13;;;10.79
43292;BMP280;28754;47.700;7.924;2023-11-19T11:06:54;91527.81;;;10.84
43292;BMP280;28754;47.700;7.924;2023-11-19T11:17:43;91519.06;;;10.80
43292;BMP280;28754;47.700;7.924;2023-11-19T11:20:32;91513.19;;;10.79
43292;BMP280;28754;47.700;7.924;2023-11-19T11:30:46;91513.47;;;10.78
43292;BMP280;28754;47.700;7.924;2023-11-19T11:37:32;91509.88;;;10.79
43292;BMP280;28754;47.700;7.924;2023-11-19T11:40:22;91507.81;;;10.76
43292;BMP280;28754;47.700;7.924;2023-11-19T11:44:04;91510.38;;;10.76
43292;BMP280;28754;47.700;7.924;2023-11-19T11:46:56;91507.03;;;10.75
43292;BMP280;28754;47.700;7.924;2023-11-19T11:49:43;91494.50;;;10.79
43292;BMP280;28754;47.700;7.924;2023-11-19T11:52:31;91493.47;;;10.80
43292;BMP280;28754;47.700;7.924;2023-11-19T11:58:32;91501.94;;;10.85
43292;BMP280;28754;47.700;7.924;2023-11-19T12:01:19;91497.34;;;10.87
43292;BMP280;28754;47.700;7.924;2023-11-19T12:04:11;91503.47;;;10.91
43292;BMP280;28754;47.700;7.924;2023-11-19T12:07:22;91498.59;;;10.95
43292;BMP280;28754;47.700;7.924;2023-11-19T12:10:24;91500.16;;;10.96
43292;BMP280;28754;47.700;7.924;2023-11-19T12:13:11;91489.38;;;10.98
43292;BMP280;28754;47.700;7.924;2023-11-19T12:18:47;91495.03;;;11.00
43292;BMP280;28754;47.700;7.924;2023-11-19T12:21:35;91487.09;;;11.02
43292;BMP280;28754;47.700;7.924;2023-11-19T12:51:53;91492.97;;;10.97
43292;BMP280;28754;47.700;7.924;2023-11-19T12:54:52;91486.06;;;10.98
43292;BMP280;28754;47.700;7.924;2023-11-19T12:57:46;91485.03;;;10.94
43292;BMP280;28754;47.700;7.924;2023-11-19T13:03:30;91503.22;;;10.93
43292;BMP280;28754;47.700;7.924;2023-11-19T13:06:18;91490.41;;;10.93
43292;BMP280;28754;47.700;7.924;2023-11-19T13:09:07;91479.38;;;10.92
43292;BMP280;28754;47.700;7.924;2023-11-19T13:11:59;91473.50;;;10.92
43292;BMP280;28754;47.700;7.924;2023-11-19T13:14:50;91475.53;;;10.95
43292;BMP280;28754;47.700;7.924;2023-11-19T13:17:37;91478.09;;;10.95
43292;BMP280;28754;47.700;7.924;2023-11-19T13:20:24;91482.75;;;10.97
43292;BMP280;28754;47.700;7.924;2023-11-19T13:23:11;91488.63;;;10.98
43292;BMP280;28754;47.700;7.924;2023-11-19T13:25:59;91487.59;;;11.04
43292;BMP280;28754;47.700;7.924;2023-11-19T13:28:46;91498.38;;;11.06
43292;BMP280;28754;47.700;7.924;2023-11-19T13:31:33;91495.53;;;11.07
43292;BMP280;28754;47.700;7.924;2023-11-19T13:34:19;91497.31;;;11.07
43292;BMP280;28754;47.700;7.924;2023-11-19T13:37:06;91499.91;;;11.02
43292;BMP280;28754;47.700;7.924;2023-11-19T13:39:53;91502.97;;;11.04
43292;BMP280;28754;47.700;7.924;2023-11-19T13:42:44;91495.28;;;11.04
43292;BMP280;28754;47.700;7.924;2023-11-19T13:45:30;91494.53;;;11.03
43292;BMP280;28754;47.700;7.924;2023-11-19T13:48:17;91492.97;;;11.02
43292;BMP280;28754;47.700;7.924;2023-11-19T13:51:04;91511.16;;;11.01
43292;BMP280;28754;47.700;7.924;2023-11-19T13:53:51;91502.97;;;10.99
43292;BMP280;28754;47.700;7.924;2023-11-19T13:56:38;91511.94;;;10.96
43292;BMP280;28754;47.700;7.924;2023-11-19T13:59:25;91488.63;;;10.98
43292;BMP280;28754;47.700;7.924;2023-11-19T14:02:11;91505.28;;;11.00
43292;BMP280;28754;47.700;7.924;2023-11-19T14:04:58;91522.19;;;11.01
43292;BMP280;28754;47.700;7.924;2023-11-19T14:07:45;91508.59;;;11.01
43292;BMP280;28754;47.700;7.924;2023-11-19T14:10:35;91505.28;;;10.96
43292;BMP280;28754;47.700;7.924;2023-11-19T14:13:23;91508.06;;;10.99
43292;BMP280;28754;47.700;7.924;2023-11-19T14:16:10;91499.63;;;10.98
43292;BMP280;28754;47.700;7.924;2023-11-19T14:18:59;91491.69;;;11.00
43292;BMP280;28754;47.700;7.924;2023-11-19T14:21:45;91500.16;;;10.96
43292;BMP280;28754;47.700;7.924;2023-11-19T14:24:34;91481.69;;;10.94
43292;BMP280;28754;47.700;7.924;2023-11-19T14:27:21;91481.47;;;10.95
43292;BMP280;28754;47.700;7.924;2023-11-19T14:30:11;91476.56;;;10.98
43292;BMP280;28754;47.700;7.924;2023-11-19T14:41:28;91471.47;;;11.03
43292;BMP280;28754;47.700;7.924;2023-11-19T14:44:17;91462.75;;;11.04
43292;BMP280;28754;47.700;7.924;2023-11-19T14:47:08;91460.69;;;11.06
43292;BMP280;28754;47.700;7.924;2023-11-19T14:53:10;91471.19;;;11.05
43292;BMP280;28754;47.700;7.924;2023-11-19T14:55:57;91472.47;;;11.02
43292;BMP280;28754;47.700;7.924;2023-11-19T14:58:44;91463.53;;;10.95
43292;BMP280;28754;47.700;7.924;2023-11-19T15:01:31;91471.47;;;10.94
43292;BMP280;28754;47.700;7.924;2023-11-19T15:04:26;91463.25;;;10.92
43292;BMP280;28754;47.700;7.924;2023-11-19T15:07:13;91454.06;;;10.91
43292;BMP280;28754;47.700;7.924;2023-11-19T15:10:00;91468.13;;;10.88
43292;BMP280;28754;47.700;7.924;2023-11-19T15:12:47;91473.25;;;10.88
43292;BMP280;28754;47.700;7.924;2023-11-19T15:15:36;91457.88;;;10.88
43292;BMP280;28754;47.700;7.924;2023-11-19T15:18:27;91459.66;;;10.88
43292;BMP280;28754;47.700;7.924;2023-11-19T15:21:17;91471.72;;;10.87
43292;BMP280;28754;47.700;7.924;2023-11-19T15:24:20;91467.34;;;10.88
43292;BMP280;28754;47.700;7.924;2023-11-19T15:27:06;91461.19;;;10.84
43292;BMP280;28754;47.700;7.924;2023-11-19T15:29:53;91454.31;;;10.84
43292;BMP280;28754;47.700;7.924;2023-11-19T15:32:43;91464.28;;;10.86
43292;BMP280;28754;47.700;7.924;2023-11-19T15:35:30;91459.91;;;10.86
43292;BMP280;28754;47.700;7.924;2023-11-19T15:38:19;91461.47;;;10.87
43292;BMP280;28754;47.700;7.924;2023-11-19T15:41:06;91469.41;;;10.86
43292;BMP280;28754;47.700;7.924;2023-11-19T15:43:53;91477.59;;;10.83
43292;BMP280;28754;47.700;7.924;2023-11-19T15:46:41;91467.59;;;10.81
43292;BMP280;28754;47.700;7.924;2023-11-19T15:49:28;91452.50;;;10.80
43292;BMP280;28754;47.700;7.924;2023-11-19T15:52:15;91464.03;;;10.82
43292;BMP280;28754;47.700;7.924;2023-11-19T15:55:02;91456.34;;;10.82
43292;BMP280;28754;47.700;7.924;2023-11-19T15:57:49;91459.91;;;10.81
43292;BMP280;28754;47.700;7.924;2023-11-19T16:00:41;91461.72;;;10.81
43292;BMP280;28754;47.700;7.924;2023-11-19T16:03:32;91475.81;;;10.83
43292;BMP280;28754;47.700;7.924;2023-11-19T16:06:22;91457.13;;;10.83
43292;BMP280;28754;47.700;7.924;2023-11-19T16:09:14;91476.56;;;10.84
43292;BMP280;28754;47.700;7.924;2023-11-19T16:12:10;91476.31;;;10.80
43292;BMP280;28754;47.700;7.924;2023-11-19T16:15:00;91485.53;;;10.86
43292;BMP280;28754;47.700;7.924;2023-11-19T16:18:00;91477.59;;;10.88
43292;BMP280;28754;47.700;7.924;2023-11-19T16:20:50;91487.09;;;10.87
43292;BMP280;28754;47.700;7.924;2023-11-19T16:23:41;91485.53;;;10.86
43292;BMP280;28754;47.700;7.924;2023-11-19T16:26:37;91481.19;;;10.92
43292;BMP280;28754;47.700;7.924;2023-11-19T16:29:24;91488.88;;;10.92
43292;BMP280;28754;47.700;7.924;2023-11-19T16:34:47;91478.38;;;10.93
43292;BMP280;28754;47.700;7.924;2023-11-19T16:37:34;91490.91;;;10.95
43292;BMP280;28754;47.700;7.924;2023-11-19T16:40:21;91490.41;;;10.97
43292;BMP280;28754;47.700;7.924;2023-11-19T16:43:09;91488.88;;;10.96
43292;BMP280;28754;47.700;7.924;2023-11-19T16:45:56;91495.03;;;10.96
43292;BMP280;28754;47.700;7.924;2023-11-19T16:48:47;91497.06;;;10.98
43292;BMP280;28754;47.700;7.924;2023-11-19T16:51:37;91499.13;;;10.96
43292;BMP280;28754;47.700;7.924;2023-11-19T16:54:23;91492.47;;;10.91
43292;BMP280;28754;47.700;7.924;2023-11-19T16:57:10;91502.72;;;10.91
43292;BMP280;28754;47.700;7.924;2023-11-19T17:00:00;91506.81;;;10.92
43292;BMP280;28754;47.700;7.924;2023-11-19T17:02:47;91508.59;;;10.91
43292;BMP280;28754;47.700;7.924;2023-11-19T17:05:34;91516.03;;;10.93
43292;BMP280;28754;47.700;7.924;2023-11-19T17:08:24;91513.97;;;10.95
43292;BMP280;28754;47.700;7.924;2023-11-19T17:11:11;91523.22;;;10.96
43292;BMP280;28754;47.700;7.924;2023-11-19T17:14:04;91498.59;;;10.95
43292;BMP280;28754;47.700;7.924;2023-11-19T17:16:51;91504.25;;;10.92
43292;BMP280;28754;47.700;7.924;2023-11-19T17:19:38;91501.69;;;10.92
43292;BMP280;28754;47.700;7.924;2023-11-19T17:22:27;91514.50;;;10.92
43292;BMP280;28754;47.700;7.924;2023-11-19T17:25:14;91511.41;;;10.90
43292;BMP280;28754;47.700;7.924;2023-11-19T17:28:03;91530.38;;;10.89